createdAt,value
2022-07-26T04:02:50.094Z,100602.31
2022-07-26T04:05:16.779Z,100613.34
2022-07-26T04:07:53.028Z,100611.03
2022-07-26T04:10:20.884Z,100610.47
2022-07-26T04:12:47.402Z,100614.94
2022-07-26T04:15:16.091Z,100615.16
2022-07-26T04:17:43.267Z,100615.94
2022-07-26T04:20:24.795Z,100621.75
2022-07-26T04:22:51.277Z,100621.75
2022-07-26T04:25:18.778Z,100607.81
2022-07-26T04:27:45.271Z,100624.84
2022-07-26T04:30:15.035Z,100614.84
2022-07-26T04:32:42.935Z,100607.47
2022-07-26T04:35:10.792Z,100618.72
2022-07-26T04:37:42.652Z,100615.06
2022-07-26T04:40:10.318Z,100617.94
2022-07-26T04:42:38.329Z,100614.50
2022-07-26T04:45:08.376Z,100614.50
2022-07-26T04:47:35.491Z,100615.25
2022-07-26T04:50:03.948Z,100605.56
2022-07-26T04:52:30.463Z,100607.13
2022-07-26T04:54:56.911Z,100618.94
2022-07-26T04:57:23.539Z,100608.91
2022-07-26T05:00:03.336Z,100617.28
2022-07-26T05:02:36.752Z,100615.75
2022-07-26T05:05:04.999Z,100626.78
2022-07-26T05:07:47.084Z,100615.75
2022-07-26T05:10:15.624Z,100625.09
2022-07-26T05:12:42.361Z,100619.28
2022-07-26T05:15:13.675Z,100627.44
2022-07-26T05:17:42.774Z,100635.56
2022-07-26T05:20:11.366Z,100631.69
2022-07-26T05:22:38.228Z,100633.69
2022-07-26T05:25:06.385Z,100622.09
2022-07-26T05:27:33.289Z,100632.22
2022-07-26T05:29:59.835Z,100633.25
2022-07-26T05:32:28.037Z,100634.78
2022-07-26T05:34:54.603Z,100630.00
2022-07-26T05:37:21.109Z,100632.75
2022-07-26T05:39:47.589Z,100632.44
2022-07-26T05:42:14.027Z,100644.03
2022-07-26T05:44:42.668Z,100657.44
2022-07-26T05:47:09.813Z,100647.38
2022-07-26T05:49:40.507Z,100646.03
2022-07-26T05:52:08.295Z,100649.59
2022-07-26T05:54:35.145Z,100649.59
2022-07-26T05:57:02.058Z,100648.47
2022-07-26T05:59:28.946Z,100650.03
2022-07-26T06:01:58.337Z,100653.47
2022-07-26T06:04:26.716Z,100657.59
2022-07-26T06:06:54.630Z,100670.22
2022-07-26T06:09:22.277Z,100655.50
2022-07-26T06:11:48.768Z,100654.34
2022-07-26T06:14:15.439Z,100652.47
2022-07-26T06:16:42.081Z,100656.38
2022-07-26T06:19:08.649Z,100663.16
2022-07-26T06:21:35.171Z,100663.97
2022-07-26T06:24:01.618Z,100662.03
2022-07-26T06:26:28.277Z,100648.66
2022-07-26T06:28:54.847Z,100658.47
2022-07-26T06:31:21.699Z,100648.41
2022-07-26T06:33:48.207Z,100648.63
2022-07-26T06:36:14.744Z,100661.22
2022-07-26T06:38:41.267Z,100653.84
2022-07-26T06:41:07.842Z,100653.53
2022-07-26T06:43:34.374Z,100654.78
2022-07-26T06:46:01.094Z,100651.88
2022-07-26T06:48:27.780Z,100659.78
2022-07-26T06:50:55.471Z,100651.31
2022-07-26T06:53:21.939Z,100657.16
2022-07-26T06:55:48.411Z,100647.69
2022-07-26T06:58:14.897Z,100662.66
2022-07-26T07:00:41.527Z,100670.25
2022-07-26T07:03:08.212Z,100668.88
2022-07-26T07:05:34.675Z,100697.56
2022-07-26T07:08:01.162Z,100691.53
2022-07-26T07:10:29.061Z,100719.38
2022-07-26T07:12:56.056Z,100718.94
2022-07-26T07:15:22.512Z,100723.22
2022-07-26T07:17:49.009Z,100733.16
2022-07-26T07:20:15.472Z,100717.53
2022-07-26T07:22:41.940Z,100719.06
2022-07-26T07:25:08.689Z,100721.19
2022-07-26T07:27:35.159Z,100720.75
2022-07-26T07:30:02.269Z,100721.97
2022-07-26T07:32:30.861Z,100731.81
2022-07-26T07:34:57.528Z,100731.03
2022-07-26T07:37:24.080Z,100726.00
2022-07-26T07:39:51.241Z,100735.50
2022-07-26T07:42:19.200Z,100726.56
2022-07-26T07:44:46.550Z,100729.91
2022-07-26T07:47:14.074Z,100737.06
2022-07-26T07:49:40.660Z,100737.97
2022-07-26T07:52:07.134Z,100733.25
2022-07-26T07:54:33.623Z,100741.28
2022-07-26T07:57:00.091Z,100736.91
2022-07-26T07:59:27.275Z,100744.09
2022-07-26T08:01:55.462Z,100749.09
2022-07-26T08:04:21.937Z,100748.47
2022-07-26T08:06:51.407Z,100737.06
2022-07-26T08:09:19.023Z,100739.06
2022-07-26T08:11:45.702Z,100752.69
2022-07-26T08:14:18.013Z,100749.56
2022-07-26T08:16:44.763Z,100753.50
2022-07-26T08:19:11.924Z,100754.25
2022-07-26T08:21:38.995Z,100755.47
2022-07-26T08:24:06.581Z,100757.94
2022-07-26T08:26:33.108Z,100781.16
2022-07-26T08:29:00.529Z,100759.31
2022-07-26T08:31:30.493Z,100783.28
2022-07-26T08:33:57.191Z,100775.59
2022-07-26T08:36:28.220Z,100792.56
2022-07-26T08:38:58.328Z,100782.41
2022-07-26T08:41:24.819Z,100786.41
2022-07-26T08:43:53.643Z,100789.31
2022-07-26T08:46:26.477Z,100798.44
2022-07-26T08:48:55.090Z,100815.78
2022-07-26T08:51:24.081Z,100820.50
2022-07-26T08:54:00.545Z,100828.03
2022-07-26T08:56:30.437Z,100828.38
2022-07-26T08:58:57.185Z,100838.44
2022-07-26T09:01:23.853Z,100851.94
2022-07-26T09:03:50.411Z,100847.47
2022-07-26T09:06:20.085Z,100843.91
2022-07-26T09:08:49.597Z,100850.72
2022-07-26T09:11:30.447Z,100849.38
2022-07-26T09:14:02.605Z,100855.75
2022-07-26T09:16:30.211Z,100865.22
2022-07-26T09:19:17.675Z,100864.13
2022-07-26T09:21:44.903Z,100865.22
2022-07-26T09:24:11.471Z,100865.00
2022-07-26T09:26:38.650Z,100871.16
2022-07-26T09:29:10.834Z,100887.78
2022-07-26T09:31:39.512Z,100869.13
2022-07-26T09:34:07.110Z,100881.53
2022-07-26T09:36:49.556Z,100884.00
2022-07-26T09:39:16.098Z,100875.72
2022-07-26T09:41:42.700Z,100888.22
2022-07-26T09:44:26.366Z,100875.94
2022-07-26T09:46:53.925Z,100893.69
2022-07-26T09:49:21.783Z,100891.34
2022-07-26T09:51:53.662Z,100888.31
2022-07-26T09:54:31.847Z,100896.25
2022-07-26T09:56:58.657Z,100890.66
2022-07-26T09:59:26.795Z,100883.19
2022-07-26T10:01:56.304Z,100881.66
2022-07-26T10:04:24.385Z,100889.34
2022-07-26T10:06:52.021Z,100909.38
2022-07-26T10:09:19.931Z,100896.47
2022-07-26T10:11:54.793Z,100913.47
2022-07-26T10:14:33.436Z,100913.88
2022-07-26T10:17:01.587Z,100911.66
2022-07-26T10:19:41.794Z,100946.53
2022-07-26T10:22:26.021Z,100937.00
2022-07-26T10:24:58.301Z,100939.97
2022-07-26T10:27:38.913Z,100957.03
2022-07-26T10:30:33.916Z,100946.88
2022-07-26T10:33:02.601Z,100955.38
2022-07-26T10:35:32.689Z,100963.94
2022-07-26T10:38:01.564Z,100960.91
2022-07-26T10:40:30.173Z,100960.56
2022-07-26T10:43:39.093Z,100979.22
2022-07-26T10:46:16.879Z,100970.22
2022-07-26T10:49:04.174Z,100966.94
2022-07-26T10:51:36.716Z,100987.34
2022-07-26T10:54:09.691Z,100982.22
2022-07-26T10:56:37.031Z,100980.09
2022-07-26T10:59:05.505Z,100973.19
2022-07-26T11:01:33.600Z,100981.91
2022-07-26T11:04:00.681Z,100977.31
2022-07-26T11:06:31.972Z,100998.16
2022-07-26T11:08:58.767Z,100986.13
2022-07-26T11:11:30.543Z,100987.25
2022-07-26T11:14:09.094Z,100989.69
2022-07-26T11:16:43.207Z,100987.47
2022-07-26T11:19:29.207Z,100999.00
2022-07-26T11:22:00.434Z,100990.28
2022-07-26T11:24:28.439Z,100992.97
2022-07-26T11:26:55.704Z,100991.84
2022-07-26T11:29:38.938Z,101007.84
2022-07-26T11:32:17.678Z,100996.72
2022-07-26T11:34:45.425Z,101006.75
2022-07-26T11:37:12.262Z,101007.66
2022-07-26T11:39:38.874Z,101005.63
2022-07-26T11:42:15.010Z,101015.47
2022-07-26T11:44:45.984Z,101007.81
2022-07-26T11:47:14.479Z,101013.47
2022-07-26T11:49:52.482Z,101000.53
2022-07-26T11:52:32.146Z,100994.47
2022-07-26T11:54:59.221Z,101006.56
2022-07-26T11:57:30.548Z,101005.91
2022-07-26T11:59:58.617Z,100997.75
2022-07-26T12:02:26.275Z,101007.13
2022-07-26T12:05:14.364Z,101015.81
2022-07-26T12:07:56.360Z,101019.50
2022-07-26T12:10:23.038Z,101028.19
2022-07-26T12:12:49.783Z,101030.44
2022-07-26T12:15:16.418Z,101031.34
2022-07-26T12:18:00.299Z,101033.56
2022-07-26T12:20:28.172Z,101041.94
2022-07-26T12:22:57.610Z,101046.72
2022-07-26T12:25:29.014Z,101040.06
2022-07-26T12:27:55.590Z,101053.91
2022-07-26T12:30:22.422Z,101041.19
2022-07-26T12:32:51.892Z,101052.81
2022-07-26T12:35:29.447Z,101050.69
2022-07-26T12:37:56.944Z,101056.13
2022-07-26T12:40:25.700Z,101050.47
2022-07-26T12:42:55.837Z,101048.09
2022-07-26T12:45:29.540Z,101055.81
2022-07-26T12:47:57.990Z,101046.56
2022-07-26T12:50:27.914Z,101061.28
2022-07-26T12:53:03.039Z,101055.00
2022-07-26T12:55:29.773Z,101041.84
2022-07-26T12:57:57.175Z,101053.47
2022-07-26T13:00:23.984Z,101064.66
2022-07-26T13:02:51.231Z,101051.13
2022-07-26T13:05:17.789Z,101053.69
2022-07-26T13:07:44.357Z,101052.59
2022-07-26T13:12:57.610Z,101055.00
2022-07-26T13:15:24.185Z,101050.63
2022-07-26T13:18:03.201Z,101059.72
2022-07-26T13:20:30.572Z,101066.44
2022-07-26T13:22:57.118Z,101051.47
2022-07-26T13:25:25.396Z,101067.56
2022-07-26T13:27:55.476Z,101067.47
2022-07-26T13:30:22.304Z,101064.91
2022-07-26T13:32:48.965Z,101060.31
2022-07-26T13:35:15.457Z,101060.88
2022-07-26T13:37:41.919Z,101058.94
2022-07-26T13:40:09.007Z,101060.94
2022-07-26T13:42:37.986Z,101070.00
2022-07-26T13:45:06.301Z,101064.75
2022-07-26T13:47:32.763Z,101066.75
2022-07-26T13:49:59.374Z,101085.09
2022-07-26T13:52:25.883Z,101074.50
2022-07-26T13:54:53.099Z,101090.78
2022-07-26T13:57:19.561Z,101077.72
2022-07-26T13:59:46.094Z,101075.50
2022-07-26T14:02:12.724Z,101091.59
2022-07-26T14:04:39.333Z,101086.69
2022-07-26T14:07:05.790Z,101099.06
2022-07-26T14:09:32.690Z,101099.84
2022-07-26T14:11:59.267Z,101092.00
2022-07-26T14:14:25.730Z,101095.13
2022-07-26T14:16:52.266Z,101095.81
2022-07-26T14:19:18.868Z,101095.06
2022-07-26T14:21:47.260Z,101102.59
2022-07-26T14:24:26.531Z,101105.84
2022-07-26T14:26:56.857Z,101101.50
2022-07-26T14:29:26.335Z,101124.38
2022-07-26T14:31:53.188Z,101114.09
2022-07-26T14:34:19.805Z,101114.91
2022-07-26T14:36:46.366Z,101117.78
2022-07-26T14:39:12.813Z,101105.63
2022-07-26T14:41:39.534Z,101107.09
2022-07-26T14:44:06.784Z,101118.25
2022-07-26T14:46:33.474Z,101123.25
2022-07-26T14:49:01.377Z,101119.53
2022-07-26T14:51:28.051Z,101119.19
2022-07-26T14:53:54.680Z,101117.00
2022-07-26T14:56:21.678Z,101111.34
2022-07-26T14:58:48.131Z,101116.50
2022-07-26T15:01:14.710Z,101123.25
2022-07-26T15:03:41.231Z,101120.91
2022-07-26T15:06:07.740Z,101134.31
2022-07-26T15:08:34.382Z,101119.81
2022-07-26T15:11:00.899Z,101126.31
2022-07-26T15:13:27.477Z,101130.78
2022-07-26T15:15:54.013Z,101120.91
2022-07-26T15:18:20.515Z,101128.94
2022-07-26T15:20:47.232Z,101136.94
2022-07-26T15:23:16.465Z,101141.25
2022-07-26T15:25:43.100Z,101136.47
2022-07-26T15:28:09.620Z,101126.97
2022-07-26T15:30:37.244Z,101129.72
2022-07-26T15:33:03.768Z,101137.16
2022-07-26T15:35:30.291Z,101128.06
2022-07-26T15:37:57.628Z,101144.00
2022-07-26T15:40:24.625Z,101137.31
2022-07-26T15:42:53.038Z,101129.09
2022-07-26T15:45:22.584Z,101134.41
2022-07-26T15:47:56.235Z,101135.84
2022-07-26T15:50:26.130Z,101136.75
2022-07-26T15:52:52.905Z,101128.28
2022-07-26T15:55:20.663Z,101126.09
2022-07-26T15:57:47.518Z,101123.25
2022-07-26T16:00:15.238Z,101138.66
2022-07-26T16:02:42.128Z,101148.06
2022-07-26T16:05:10.286Z,101140.56
2022-07-26T16:07:37.713Z,101135.69
2022-07-26T16:10:04.993Z,101128.66
2022-07-26T16:12:31.462Z,101133.31
2022-07-26T16:14:57.906Z,101130.78
2022-07-26T16:17:25.215Z,101139.41
2022-07-26T16:19:52.893Z,101135.31
2022-07-26T16:22:19.453Z,101137.34
2022-07-26T16:24:46.093Z,101130.84
2022-07-26T16:27:12.599Z,101130.66
2022-07-26T16:29:39.230Z,101124.28
2022-07-26T16:32:08.219Z,101133.34
2022-07-26T16:34:34.935Z,101139.09
2022-07-26T16:37:02.146Z,101136.59
2022-07-26T16:39:28.895Z,101138.97
2022-07-26T16:41:55.351Z,101144.69
2022-07-26T16:44:23.992Z,101155.44
2022-07-26T16:46:51.606Z,101147.50
2022-07-26T16:49:18.209Z,101152.31
2022-07-26T16:51:44.775Z,101153.66
2022-07-26T16:54:11.378Z,101157.25
2022-07-26T16:56:38.082Z,101144.03
2022-07-26T16:59:08.645Z,101152.25
2022-07-26T17:01:36.843Z,101153.97
2022-07-26T17:04:03.422Z,101161.72
2022-07-26T17:06:29.859Z,101149.41
2022-07-26T17:08:56.354Z,101159.72
2022-07-26T17:11:22.906Z,101151.66
2022-07-26T17:13:49.607Z,101157.91
2022-07-26T17:16:16.164Z,101156.81
2022-07-26T17:18:50.751Z,101159.94
2022-07-26T17:21:17.358Z,101167.31
2022-07-26T17:23:44.053Z,101168.78
2022-07-26T17:26:10.578Z,101153.69
2022-07-26T17:28:37.114Z,101154.91
2022-07-26T17:31:03.640Z,101160.47
2022-07-26T17:33:30.270Z,101157.69
2022-07-26T17:35:56.791Z,101161.50
2022-07-26T17:38:28.787Z,101177.25
2022-07-26T17:40:57.026Z,101162.97
2022-07-26T17:43:23.562Z,101169.78
2022-07-26T17:45:50.410Z,101182.63
2022-07-26T17:48:16.896Z,101170.88
2022-07-26T17:50:43.362Z,101180.69
2022-07-26T17:53:09.882Z,101187.91
2022-07-26T17:55:36.317Z,101193.25
2022-07-26T17:58:02.851Z,101184.53
2022-07-26T18:00:29.665Z,101184.09
2022-07-26T18:02:57.206Z,101190.34
2022-07-26T18:05:30.160Z,101197.63
2022-07-26T18:07:59.991Z,101189.66
2022-07-26T18:10:27.605Z,101199.28
2022-07-26T18:12:54.777Z,101193.03
2022-07-26T18:15:21.909Z,101188.22
2022-07-26T18:17:48.552Z,101179.91
2022-07-26T18:20:15.169Z,101194.81
2022-07-26T18:22:41.646Z,101185.16
2022-07-26T18:25:12.685Z,101193.91
2022-07-26T18:27:39.665Z,101195.00
2022-07-26T18:30:07.179Z,101198.00
2022-07-26T18:32:34.814Z,101200.22
2022-07-26T18:35:01.408Z,101202.44
2022-07-26T18:37:27.963Z,101205.78
2022-07-26T18:39:57.844Z,101206.25
2022-07-26T18:42:25.020Z,101203.91
2022-07-26T18:44:51.705Z,101205.59
2022-07-26T18:47:18.210Z,101208.25
2022-07-26T18:49:44.655Z,101203.31
2022-07-26T18:52:11.504Z,101198.59
2022-07-26T18:54:37.939Z,101203.31
2022-07-26T18:57:04.790Z,101201.50
2022-07-26T18:59:31.671Z,101192.34
2022-07-26T19:01:59.789Z,101202.38
2022-07-26T19:04:26.817Z,101198.16
2022-07-26T19:06:53.423Z,101207.72
2022-07-26T19:09:20.090Z,101207.47
2022-07-26T19:11:46.698Z,101205.44
2022-07-26T19:14:13.355Z,101217.59
2022-07-26T19:16:39.981Z,101212.09
2022-07-26T19:19:06.438Z,101217.41
2022-07-26T19:21:32.962Z,101217.75
2022-07-26T19:23:59.467Z,101220.72
2022-07-26T19:26:27.324Z,101231.53
2022-07-26T19:28:54.025Z,101222.91
2022-07-26T19:31:21.743Z,101226.13
2022-07-26T19:33:48.319Z,101230.91
2022-07-26T19:36:17.365Z,101228.88
2022-07-26T19:38:52.261Z,101229.16
2022-07-26T19:41:19.902Z,101232.16
2022-07-26T19:43:46.418Z,101238.25
2022-07-26T19:46:13.150Z,101237.22
2022-07-26T19:48:39.920Z,101236.50
2022-07-26T19:51:06.468Z,101241.84
2022-07-26T19:53:32.952Z,101246.38
2022-07-26T19:55:59.414Z,101243.53
2022-07-26T19:58:26.222Z,101244.59
2022-07-26T20:00:53.581Z,101238.34
2022-07-26T20:03:20.039Z,101241.28
2022-07-26T20:05:46.576Z,101227.91
2022-07-26T20:08:13.042Z,101237.94
2022-07-26T20:10:39.698Z,101244.34
2022-07-26T20:13:06.278Z,101242.22
2022-07-26T20:15:33.077Z,101237.25
2022-07-26T20:17:59.641Z,101237.56
2022-07-26T20:20:26.206Z,101237.06
2022-07-26T20:22:52.711Z,101239.75
2022-07-26T20:25:21.576Z,101244.00
2022-07-26T20:27:51.222Z,101232.75
2022-07-26T20:30:18.266Z,101246.47
2022-07-26T20:32:44.806Z,101248.84
2022-07-26T20:35:12.114Z,101251.28
2022-07-26T20:37:38.745Z,101244.19
2022-07-26T20:40:08.358Z,101246.09
2022-07-26T20:42:36.575Z,101249.53
2022-07-26T20:45:11.430Z,101258.25
2022-07-26T20:47:43.052Z,101254.84
2022-07-26T20:50:14.152Z,101249.88
2022-07-26T20:52:40.625Z,101267.53
2022-07-26T20:55:07.987Z,101258.09
2022-07-26T20:57:34.722Z,101262.03
2022-07-26T21:00:01.255Z,101263.66
2022-07-26T21:02:27.938Z,101261.84
2022-07-26T21:04:54.587Z,101270.03
2022-07-26T21:07:21.037Z,101267.13
2022-07-26T21:09:47.712Z,101268.25
2022-07-26T21:12:14.243Z,101269.03
2022-07-26T21:14:40.752Z,101269.56
2022-07-26T21:17:11.594Z,101275.63
2022-07-26T21:19:39.320Z,101275.69
2022-07-26T21:22:05.981Z,101287.25
2022-07-26T21:24:32.780Z,101287.53
2022-07-26T21:26:59.242Z,101287.00
2022-07-26T21:29:25.819Z,101287.28
2022-07-26T21:31:52.340Z,101286.81
2022-07-26T21:34:19.221Z,101287.88
2022-07-26T21:36:46.218Z,101281.31
2022-07-26T21:39:13.711Z,101279.22
2022-07-26T21:41:40.477Z,101284.47
2022-07-26T21:44:06.963Z,101288.41
2022-07-26T21:46:33.511Z,101285.00
2022-07-26T21:49:00.108Z,101298.41
2022-07-26T21:51:26.778Z,101297.34
2022-07-26T21:53:53.304Z,101287.09
2022-07-26T21:56:19.769Z,101291.84
2022-07-26T21:58:46.856Z,101290.78
